createdAt,value
2016-04-15T00:00:45.629Z,1000.82
2016-04-15T00:01:45.647Z,1000.79
2016-04-15T00:02:45.649Z,1000.8
2016-04-15T00:03:45.652Z,1000.81
2016-04-15T00:04:45.655Z,1000.76
2016-04-15T00:05:45.673Z,1000.79
2016-04-15T00:06:45.676Z,1000.8
2016-04-15T00:07:45.679Z,1000.75
2016-04-15T00:08:45.681Z,1000.76
2016-04-15T00:09:45.684Z,1000.77
2016-04-15T00:10:45.703Z,1000.75
2016-04-15T00:11:45.706Z,1000.77
2016-04-15T00:12:45.709Z,1000.71
2016-04-15T00:13:45.711Z,1000.71
2016-04-15T00:14:45.729Z,1000.72
2016-04-15T00:15:45.731Z,1000.66
2016-04-15T00:16:45.734Z,1000.65
2016-04-15T00:17:45.737Z,1000.66
2016-04-15T00:18:45.755Z,1000.65
2016-04-15T00:19:45.758Z,1000.6
2016-04-15T00:20:45.760Z,1000.63
2016-04-15T00:21:45.763Z,1000.62
2016-04-15T00:22:45.782Z,1000.62
2016-04-15T00:23:45.768Z,1000.58
2016-04-15T00:24:45.787Z,1000.59
2016-04-15T00:25:45.790Z,1000.53
2016-04-15T00:26:45.793Z,1000.52
2016-04-15T00:27:45.811Z,1000.48
2016-04-15T00:28:45.813Z,1000.5
2016-04-15T00:29:45.816Z,1000.47
2016-04-15T00:30:45.818Z,1000.47
2016-04-15T00:31:45.837Z,1000.48
2016-04-15T00:32:45.825Z,1000.44
2016-04-15T00:33:45.844Z,1000.4
2016-04-15T00:34:45.846Z,1000.41
2016-04-15T00:35:45.841Z,1000.4
2016-04-15T00:36:45.859Z,1000.37
2016-04-15T00:37:45.862Z,1000.38
2016-04-15T00:38:45.864Z,1000.39
2016-04-15T00:39:45.882Z,1000.35
2016-04-15T00:40:45.885Z,1000.28
2016-04-15T00:41:45.887Z,1000.3
2016-04-15T00:42:45.906Z,1000.28
2016-04-15T00:43:45.908Z,1000.3
2016-04-15T00:44:45.973Z,1000.25
2016-04-15T00:45:45.929Z,1000.23
2016-04-15T00:46:45.917Z,1000.26
2016-04-15T00:47:45.920Z,1000.22
2016-04-15T00:48:45.923Z,1000.2
2016-04-15T00:49:45.940Z,1000.2
2016-04-15T00:50:45.943Z,1000.2
2016-04-15T00:51:45.946Z,1000.22
2016-04-15T00:52:45.948Z,1000.18
2016-04-15T00:53:45.967Z,1000.14
2016-04-15T00:54:45.969Z,1000.16
2016-04-15T00:55:45.988Z,1000.18
2016-04-15T00:56:45.990Z,1000.15
2016-04-15T00:57:45.993Z,1000.1
2016-04-15T00:58:45.996Z,1000.15
2016-04-15T00:59:45.998Z,1000.14
2016-04-15T01:00:46.001Z,1000.11
2016-04-15T01:01:46.004Z,1000.09
2016-04-15T01:02:46.007Z,1000.11
2016-04-15T01:03:46.025Z,1000.1
2016-04-15T01:04:46.027Z,1000.08
2016-04-15T01:05:46.030Z,1000.17
2016-04-15T01:06:46.032Z,1000.12
2016-04-15T01:07:46.051Z,1000.14
2016-04-15T01:08:46.054Z,1000.14
2016-04-15T01:09:46.057Z,1000.15
2016-04-15T01:10:46.059Z,1000.17
2016-04-15T01:11:46.062Z,1000.17
2016-04-15T01:12:46.064Z,1000.2
2016-04-15T01:13:46.083Z,1000.11
2016-04-15T01:14:46.086Z,1000.21
2016-04-15T01:15:46.088Z,1000.21
2016-04-15T01:16:46.092Z,1000.26
2016-04-15T01:17:46.094Z,1000.25
2016-04-15T01:18:46.112Z,1000.3
2016-04-15T01:19:46.115Z,1000.32
2016-04-15T01:20:46.117Z,1000.32
2016-04-15T01:21:46.120Z,1000.31
2016-04-15T01:22:46.122Z,1000.39
2016-04-15T01:23:46.141Z,1000.37
2016-04-15T01:24:46.144Z,1000.36
2016-04-15T01:25:46.146Z,1000.35
2016-04-15T01:26:46.165Z,1000.49
2016-04-15T01:27:46.167Z,1000.34
2016-04-15T01:28:46.170Z,1000.42
2016-04-15T01:29:46.267Z,1000.39
2016-04-15T01:30:46.175Z,1000.35
2016-04-15T01:31:46.178Z,1000.39
2016-04-15T01:32:46.196Z,1000.55
2016-04-15T01:33:46.199Z,1000.46
2016-04-15T01:34:46.202Z,1000.43
2016-04-15T01:35:46.205Z,1000.4
2016-04-15T01:36:46.223Z,1000.34
2016-04-15T01:37:46.226Z,1000.36
2016-04-15T01:38:46.228Z,1000.5
2016-04-15T01:39:46.231Z,1000.32
2016-04-15T01:40:46.234Z,1000.36
2016-04-15T01:41:46.236Z,1000.51
2016-04-15T01:42:46.255Z,1000.35
2016-04-15T01:43:46.257Z,1000.42
2016-04-15T01:44:46.276Z,1000.33
2016-04-15T01:45:46.263Z,1000.44
2016-04-15T01:46:46.281Z,1000.38
2016-04-15T01:47:46.300Z,1000.37
2016-04-15T01:48:46.286Z,1000.37
2016-04-15T01:49:46.289Z,1000.35
2016-04-15T01:50:46.292Z,1000.39
2016-04-15T01:51:46.310Z,1000.38
2016-04-15T01:52:46.313Z,1000.39
2016-04-15T01:53:46.315Z,1000.3
2016-04-15T01:54:46.318Z,1000.32
2016-04-15T01:55:46.321Z,1000.34
2016-04-15T01:56:46.338Z,1000.29
2016-04-15T01:57:46.342Z,1000.28
2016-04-15T01:58:46.344Z,1000.31
2016-04-15T01:59:46.363Z,1000.26
2016-04-15T02:00:46.366Z,1000.24
2016-04-15T02:01:46.369Z,1000.24
2016-04-15T02:02:46.371Z,1000.18
2016-04-15T02:03:46.374Z,1000.2
2016-04-15T02:04:46.376Z,1000.21
2016-04-15T02:05:46.394Z,1000.18
2016-04-15T02:06:46.397Z,1000.11
2016-04-15T02:07:46.400Z,1000.13
2016-04-15T02:08:46.403Z,1000.14
2016-04-15T02:09:46.405Z,1000.13
2016-04-15T02:10:46.424Z,1000.13
2016-04-15T02:11:46.427Z,1000.11
2016-04-15T02:12:46.429Z,1000.13
2016-04-15T02:13:46.432Z,1000.07
2016-04-15T02:14:46.450Z,1000.09
2016-04-15T02:15:46.453Z,1000.08
2016-04-15T02:16:46.456Z,1000.02
2016-04-15T02:17:46.458Z,1000.07
2016-04-15T02:18:46.461Z,1000.02
2016-04-15T02:19:46.463Z,1000
2016-04-15T02:20:46.481Z,999.96
2016-04-15T02:21:46.484Z,999.93
2016-04-15T02:22:46.486Z,999.9
2016-04-15T02:23:46.506Z,999.88
2016-04-15T02:24:46.492Z,999.88
2016-04-15T02:25:46.495Z,999.9
2016-04-15T02:26:46.514Z,999.84
2016-04-15T02:27:46.516Z,999.83
2016-04-15T02:28:46.519Z,999.85
2016-04-15T02:29:46.538Z,999.82
2016-04-15T02:30:46.540Z,999.76
2016-04-15T02:31:46.543Z,999.76
2016-04-15T02:32:46.546Z,999.76
2016-04-15T02:33:46.548Z,999.75
2016-04-15T02:34:46.566Z,999.7
2016-04-15T02:35:46.568Z,999.68
2016-04-15T02:36:46.571Z,999.71
2016-04-15T02:37:46.574Z,999.6
2016-04-15T02:38:46.577Z,999.6
2016-04-15T02:39:46.596Z,999.53
2016-04-15T02:40:46.598Z,999.53
2016-04-15T02:41:46.601Z,999.55
2016-04-15T02:42:46.619Z,999.51
2016-04-15T02:43:46.606Z,999.49
2016-04-15T02:44:46.609Z,999.43
2016-04-15T02:45:46.626Z,999.42
2016-04-15T02:46:46.629Z,999.38
2016-04-15T02:47:46.648Z,999.38
2016-04-15T02:48:46.635Z,999.31
2016-04-15T02:49:46.654Z,999.3
2016-04-15T02:50:46.657Z,999.26
2016-04-15T02:51:46.659Z,999.22
2016-04-15T02:52:46.662Z,999.16
2016-04-15T02:53:46.665Z,999.15
2016-04-15T02:54:46.683Z,999.09
2016-04-15T02:55:46.686Z,999.09
2016-04-15T02:56:46.688Z,999.08
2016-04-15T02:57:46.691Z,999.04
2016-04-15T02:58:46.694Z,999.03
2016-04-15T02:59:46.711Z,999.01
2016-04-15T03:00:46.714Z,998.99
2016-04-15T03:01:46.717Z,998.97
2016-04-15T03:02:46.736Z,998.93
2016-04-15T03:03:46.722Z,998.98
2016-04-15T03:04:46.741Z,998.93
2016-04-15T03:05:46.744Z,998.92
2016-04-15T03:06:46.746Z,998.95
2016-04-15T03:07:46.749Z,998.9
2016-04-15T03:08:46.768Z,998.87
2016-04-15T03:09:46.770Z,998.84
2016-04-15T03:10:46.773Z,998.81
2016-04-15T03:11:46.775Z,998.83
2016-04-15T03:12:46.778Z,998.8
2016-04-15T03:13:46.781Z,998.77
2016-04-15T03:14:46.798Z,998.7
2016-04-15T03:15:46.801Z,998.69
2016-04-15T03:16:46.804Z,998.69
2016-04-15T03:17:46.806Z,998.64
2016-04-15T03:18:46.825Z,998.63
2016-04-15T03:19:46.828Z,998.62
2016-04-15T03:20:46.831Z,998.58
2016-04-15T03:21:46.834Z,998.55
2016-04-15T03:22:46.836Z,998.53
2016-04-15T03:23:46.854Z,998.51
2016-04-15T03:24:46.857Z,998.46
2016-04-15T03:25:46.859Z,998.46
2016-04-15T03:26:46.862Z,998.44
2016-04-15T03:27:46.880Z,998.44
2016-04-15T03:28:46.883Z,998.41
2016-04-15T03:29:46.886Z,998.37
2016-04-15T03:30:46.889Z,998.38
2016-04-15T03:31:46.892Z,998.37
2016-04-15T03:32:46.910Z,998.38
2016-04-15T03:33:46.913Z,998.32
2016-04-15T03:34:46.916Z,998.33
2016-04-15T03:35:46.918Z,998.27
2016-04-15T03:36:46.921Z,998.27
2016-04-15T03:37:46.938Z,998.24
2016-04-15T03:38:46.941Z,998.18
2016-04-15T03:39:46.944Z,998.2
2016-04-15T03:40:46.947Z,998.2
2016-04-15T03:41:46.949Z,998.19
2016-04-15T03:42:46.952Z,998.19
2016-04-15T03:43:46.971Z,998.14
2016-04-15T03:44:46.973Z,998.08
2016-04-15T03:45:46.976Z,998.09
2016-04-15T03:46:46.979Z,998.08
2016-04-15T03:47:46.998Z,998.06
2016-04-15T03:48:47.000Z,997.96
2016-04-15T03:49:47.003Z,997.92
2016-04-15T03:50:47.005Z,997.9
2016-04-15T03:51:47.008Z,997.9
2016-04-15T03:52:47.026Z,997.89
2016-04-15T03:53:47.028Z,997.87
2016-04-15T03:54:47.031Z,997.81
2016-04-15T03:55:47.034Z,997.79
2016-04-15T03:56:47.036Z,997.77
2016-04-15T03:57:47.055Z,997.77
2016-04-15T03:58:47.057Z,997.73
2016-04-15T03:59:47.060Z,997.69
2016-04-15T04:00:47.063Z,997.67
2016-04-15T04:01:47.066Z,997.66
2016-04-15T04:02:47.084Z,997.66
2016-04-15T04:03:47.086Z,997.64
2016-04-15T04:04:47.089Z,997.65
2016-04-15T04:05:47.092Z,997.62
2016-04-15T04:06:47.110Z,997.59
2016-04-15T04:07:47.113Z,997.6
2016-04-15T04:08:47.116Z,997.6
2016-04-15T04:09:47.118Z,997.56
2016-04-15T04:10:47.121Z,997.59
2016-04-15T04:11:47.124Z,997.56
2016-04-15T04:12:47.143Z,997.54
2016-04-15T04:13:47.145Z,997.49
2016-04-15T04:14:47.148Z,997.5
2016-04-15T04:15:47.151Z,997.54
2016-04-15T04:16:47.153Z,997.52
2016-04-15T04:17:47.171Z,997.48
2016-04-15T04:18:47.174Z,997.49
2016-04-15T04:19:47.176Z,997.48
2016-04-15T04:20:47.179Z,997.51
2016-04-15T04:21:47.198Z,997.49
2016-04-15T04:22:47.200Z,997.47
2016-04-15T04:23:47.219Z,997.48
2016-04-15T04:24:47.252Z,997.47
2016-04-15T04:25:47.224Z,997.44
2016-04-15T04:26:47.227Z,997.4
2016-04-15T04:27:47.230Z,997.38
2016-04-15T04:28:47.233Z,997.33
2016-04-15T04:29:47.236Z,997.31
2016-04-15T04:30:47.253Z,997.36
2016-04-15T04:31:47.241Z,997.37
2016-04-15T04:32:47.259Z,997.36
2016-04-15T04:33:47.261Z,997.4
2016-04-15T04:34:47.264Z,997.45
2016-04-15T04:35:47.266Z,997.44
2016-04-15T04:36:47.285Z,997.46
2016-04-15T04:37:47.288Z,997.43
2016-04-15T04:38:47.290Z,997.44
2016-04-15T04:39:47.293Z,997.41
2016-04-15T04:40:47.295Z,997.35
2016-04-15T04:41:47.313Z,997.36
2016-04-15T04:42:47.316Z,997.34
2016-04-15T04:43:47.319Z,997.33
2016-04-15T04:44:47.322Z,997.29
2016-04-15T04:45:47.340Z,997.22
2016-04-15T04:46:47.327Z,997.2
2016-04-15T04:47:47.346Z,997.18
2016-04-15T04:48:47.348Z,997.18
2016-04-15T04:49:47.351Z,997.21
2016-04-15T04:50:47.353Z,997.16
2016-04-15T04:51:47.373Z,997.17
2016-04-15T04:52:47.384Z,997.11
2016-04-15T04:53:47.376Z,997.07
2016-04-15T04:54:47.384Z,997.04
2016-04-15T04:55:47.386Z,997.03
2016-04-15T04:56:47.389Z,996.94
2016-04-15T04:57:47.406Z,996.98
2016-04-15T04:58:47.425Z,996.94
2016-04-15T04:59:47.412Z,996.94
2016-04-15T05:00:47.431Z,996.94
2016-04-15T05:01:47.433Z,996.93
2016-04-15T05:02:47.436Z,996.96
2016-04-15T05:03:47.439Z,996.92
2016-04-15T05:04:47.441Z,996.93
2016-04-15T05:05:47.444Z,996.92
2016-04-15T05:06:47.462Z,996.89
2016-04-15T05:07:47.465Z,996.89
2016-04-15T05:08:47.483Z,996.85
2016-04-15T05:09:47.470Z,996.83
2016-04-15T05:10:47.474Z,996.81
2016-04-15T05:11:47.491Z,996.75
2016-04-15T05:12:47.494Z,996.72
2016-04-15T05:13:47.497Z,996.75
2016-04-15T05:14:47.499Z,996.75
2016-04-15T05:15:47.518Z,996.69
2016-04-15T05:16:47.521Z,996.7
2016-04-15T05:17:47.523Z,996.71
2016-04-15T05:18:47.526Z,996.71
2016-04-15T05:19:47.528Z,996.71
2016-04-15T05:20:47.531Z,996.72
2016-04-15T05:21:47.549Z,996.68
2016-04-15T05:22:47.551Z,996.69
2016-04-15T05:23:47.554Z,996.67
2016-04-15T05:24:47.557Z,996.71
2016-04-15T05:25:47.575Z,996.64
2016-04-15T05:26:47.578Z,996.61
2016-04-15T05:27:47.581Z,996.58
2016-04-15T05:28:47.584Z,996.55
2016-04-15T05:29:47.587Z,996.55
2016-04-15T05:30:47.620Z,996.5
2016-04-15T05:31:47.608Z,996.47
2016-04-15T05:32:47.610Z,996.49
2016-04-15T05:33:47.613Z,996.48
2016-04-15T05:34:47.616Z,996.45
2016-04-15T05:35:47.633Z,996.48
2016-04-15T05:36:47.637Z,996.45
2016-04-15T05:37:47.639Z,996.43
2016-04-15T05:38:47.642Z,996.45
2016-04-15T05:39:47.645Z,996.47
2016-04-15T05:40:47.663Z,996.5
2016-04-15T05:41:47.666Z,996.44
2016-04-15T05:42:47.668Z,996.47
2016-04-15T05:43:47.702Z,996.45
2016-04-15T05:44:47.674Z,996.41
2016-04-15T05:45:47.832Z,996.38
2016-04-15T05:46:47.695Z,996.43
2016-04-15T05:47:47.698Z,996.4
2016-04-15T05:48:47.700Z,996.39
2016-04-15T05:49:47.718Z,996.38
2016-04-15T05:50:47.721Z,996.41
2016-04-15T05:51:47.723Z,996.36
2016-04-15T05:52:47.727Z,996.39
2016-04-15T05:53:47.729Z,996.43
2016-04-15T05:54:47.748Z,996.46
2016-04-15T05:55:47.751Z,996.43
2016-04-15T05:56:47.753Z,996.39
2016-04-15T05:57:47.756Z,996.42
2016-04-15T05:58:47.758Z,996.43
2016-04-15T05:59:47.776Z,996.46
2016-04-15T06:00:47.842Z,996.41
2016-04-15T06:01:47.781Z,996.42
2016-04-15T06:02:47.784Z,996.39
2016-04-15T06:03:47.802Z,996.34
2016-04-15T06:04:47.805Z,996.38
2016-04-15T06:05:47.808Z,996.38
2016-04-15T06:06:47.810Z,996.46
2016-04-15T06:07:47.813Z,996.45
2016-04-15T06:08:47.832Z,996.44
2016-04-15T06:09:47.835Z,996.42
2016-04-15T06:10:47.838Z,996.39
2016-04-15T06:11:47.841Z,996.34
2016-04-15T06:12:47.858Z,996.33
2016-04-15T06:13:47.861Z,996.37
2016-04-15T06:14:47.863Z,996.38
2016-04-15T06:15:47.991Z,996.39
2016-04-15T06:16:47.869Z,996.4
2016-04-15T06:17:47.871Z,996.43
2016-04-15T06:18:47.874Z,996.41
2016-04-15T06:19:47.893Z,996.44
2016-04-15T06:20:47.896Z,996.37
2016-04-15T06:21:47.904Z,996.45
2016-04-15T06:22:47.908Z,996.44
2016-04-15T06:23:47.911Z,996.38
2016-04-15T06:24:47.914Z,996.45
2016-04-15T06:25:47.931Z,996.43
2016-04-15T06:26:47.934Z,996.45
2016-04-15T06:27:47.941Z,996.45
2016-04-15T06:28:47.944Z,996.46
2016-04-15T06:29:47.946Z,996.4
2016-04-15T06:30:47.980Z,996.36
2016-04-15T06:31:47.968Z,996.46
2016-04-15T06:32:47.986Z,996.46
2016-04-15T06:33:47.974Z,996.45
2016-04-15T06:34:47.992Z,996.48
2016-04-15T06:35:47.994Z,996.5
2016-04-15T06:36:47.997Z,996.42
2016-04-15T06:37:48.016Z,996.56
2016-04-15T06:38:48.002Z,996.55
2016-04-15T06:39:48.005Z,996.47
2016-04-15T06:40:48.007Z,996.57
2016-04-15T06:41:48.026Z,996.58
2016-04-15T06:42:48.029Z,996.6
2016-04-15T06:43:48.047Z,996.56
2016-04-15T06:44:48.034Z,996.53
2016-04-15T06:45:48.036Z,996.62
2016-04-15T06:46:48.055Z,996.54
2016-04-15T06:47:48.058Z,996.55
2016-04-15T06:48:48.060Z,996.63
2016-04-15T06:49:48.079Z,996.55
2016-04-15T06:50:48.066Z,996.6
2016-04-15T06:51:48.084Z,996.66
2016-04-15T06:52:48.087Z,996.55
2016-04-15T06:53:48.089Z,996.6
2016-04-15T06:54:48.092Z,996.64
2016-04-15T06:55:48.110Z,996.71
2016-04-15T06:56:48.113Z,996.65
2016-04-15T06:57:48.116Z,996.66
2016-04-15T06:58:48.119Z,996.63
2016-04-15T06:59:48.122Z,996.62
2016-04-15T07:00:48.125Z,996.75
2016-04-15T07:01:48.143Z,996.71
2016-04-15T07:02:48.146Z,996.7
2016-04-15T07:03:48.148Z,996.72
2016-04-15T07:04:48.151Z,996.67
2016-04-15T07:05:48.169Z,996.74
2016-04-15T07:06:48.171Z,996.67
2016-04-15T07:07:48.174Z,996.74
2016-04-15T07:08:48.177Z,996.72
2016-04-15T07:09:48.195Z,996.7
2016-04-15T07:10:48.198Z,996.73
2016-04-15T07:11:48.200Z,996.73
2016-04-15T07:12:48.203Z,996.7
2016-04-15T07:13:48.221Z,996.66
2016-04-15T07:14:48.224Z,996.77
2016-04-15T07:15:48.227Z,996.69
2016-04-15T07:16:48.229Z,996.71
2016-04-15T07:17:48.232Z,996.75
2016-04-15T07:18:48.235Z,996.69
2016-04-15T07:19:48.254Z,996.69
2016-04-15T07:20:48.256Z,996.72
2016-04-15T07:21:48.263Z,996.68
2016-04-15T07:22:48.266Z,996.68
2016-04-15T07:23:48.269Z,996.79
2016-04-15T07:24:48.271Z,996.75
2016-04-15T07:25:48.290Z,996.8
2016-04-15T07:26:48.292Z,996.72
2016-04-15T07:27:48.300Z,996.72
2016-04-15T07:28:48.304Z,996.74
2016-04-15T07:29:48.306Z,996.72
2016-04-15T07:30:48.309Z,996.74
2016-04-15T07:31:48.312Z,996.77
2016-04-15T07:32:48.329Z,996.76
2016-04-15T07:33:48.332Z,996.82
2016-04-15T07:34:48.334Z,996.77
2016-04-15T07:35:48.337Z,996.68
2016-04-15T07:36:48.356Z,996.71
2016-04-15T07:37:48.358Z,996.76
2016-04-15T07:38:48.361Z,996.78
2016-04-15T07:39:48.364Z,996.82
2016-04-15T07:40:48.366Z,996.85
2016-04-15T07:41:48.385Z,996.77
2016-04-15T07:42:48.387Z,996.77
2016-04-15T07:43:48.390Z,996.8
2016-04-15T07:44:48.393Z,996.83
2016-04-15T07:45:48.395Z,996.9
2016-04-15T07:46:48.398Z,996.87
2016-04-15T07:47:48.416Z,996.87
2016-04-15T07:48:48.419Z,996.81
2016-04-15T07:49:48.422Z,996.79
2016-04-15T07:50:48.424Z,996.81
2016-04-15T07:51:48.427Z,996.8
2016-04-15T07:52:48.445Z,996.8
2016-04-15T07:53:48.448Z,996.85
2016-04-15T07:54:48.451Z,996.85
2016-04-15T07:55:48.468Z,996.91
2016-04-15T07:56:48.472Z,996.8
2016-04-15T07:57:48.474Z,996.87
2016-04-15T07:58:48.477Z,996.85
2016-04-15T07:59:48.479Z,996.88
2016-04-15T08:00:48.498Z,996.87
2016-04-15T08:01:48.501Z,996.87
2016-04-15T08:02:48.519Z,996.85
2016-04-15T08:03:48.506Z,996.86
2016-04-15T08:04:48.509Z,996.88
2016-04-15T08:05:48.528Z,996.88
2016-04-15T08:06:48.531Z,996.88
2016-04-15T08:07:48.534Z,996.89
2016-04-15T08:08:48.551Z,996.85
2016-04-15T08:09:48.554Z,996.89
2016-04-15T08:10:48.556Z,996.9
2016-04-15T08:11:48.559Z,996.94
2016-04-15T08:12:48.578Z,996.96
2016-04-15T08:13:48.580Z,997.01
2016-04-15T08:14:48.583Z,996.97
2016-04-15T08:15:48.600Z,996.89
2016-04-15T08:16:48.589Z,996.9
2016-04-15T08:17:48.606Z,996.92
2016-04-15T08:18:48.609Z,996.88
2016-04-15T08:19:48.612Z,996.86
2016-04-15T08:20:48.630Z,996.85
2016-04-15T08:21:48.639Z,996.84
2016-04-15T08:22:48.642Z,996.95
2016-04-15T08:23:48.644Z,996.96
2016-04-15T08:24:48.647Z,996.98
2016-04-15T08:25:48.664Z,996.94
2016-04-15T08:26:48.667Z,996.9
2016-04-15T08:27:48.670Z,996.87
2016-04-15T08:28:48.672Z,996.94
2016-04-15T08:29:48.692Z,996.92
2016-04-15T08:30:48.694Z,996.84
2016-04-15T08:31:48.702Z,996.9
2016-04-15T08:32:48.747Z,996.88
2016-04-15T08:33:48.808Z,996.92
2016-04-15T08:34:48.853Z,996.95
2016-04-15T08:35:48.899Z,996.94
2016-04-15T08:36:48.956Z,997
2016-04-15T08:37:48.974Z,997.08
2016-04-15T08:38:48.992Z,997.01
2016-04-15T08:39:49.042Z,997.02
2016-04-15T08:40:49.044Z,997.06
2016-04-15T08:41:49.061Z,997
2016-04-15T08:42:49.069Z,996.96
2016-04-15T08:43:49.077Z,997.06
2016-04-15T08:44:49.102Z,996.92
2016-04-15T08:45:49.110Z,996.99
2016-04-15T08:46:49.132Z,996.85
2016-04-15T08:47:49.137Z,996.96
2016-04-15T08:48:49.141Z,996.98
2016-04-15T08:49:49.146Z,996.92
2016-04-15T08:50:49.150Z,996.88
2016-04-15T08:51:49.171Z,996.87
2016-04-15T08:52:49.175Z,996.93
2016-04-15T08:53:49.178Z,996.91
2016-04-15T08:54:49.197Z,996.94
2016-04-15T08:55:49.200Z,996.97
2016-04-15T08:56:49.203Z,996.94
2016-04-15T08:57:49.222Z,996.92
2016-04-15T08:58:49.225Z,996.94
2016-04-15T08:59:49.229Z,996.94
2016-04-15T09:00:49.231Z,996.97
2016-04-15T09:01:49.250Z,996.9
2016-04-15T09:02:49.253Z,996.89
2016-04-15T09:03:49.256Z,996.88
2016-04-15T09:04:49.274Z,996.74
2016-04-15T09:05:49.277Z,996.83
2016-04-15T09:06:49.279Z,996.84
2016-04-15T09:07:49.298Z,996.84
2016-04-15T09:08:49.300Z,996.79
2016-04-15T09:09:49.303Z,996.88
2016-04-15T09:10:49.306Z,996.91
2016-04-15T09:11:49.308Z,996.76
2016-04-15T09:12:49.327Z,996.83
2016-04-15T09:13:49.329Z,996.8
2016-04-15T09:14:49.332Z,996.85
2016-04-15T09:15:49.335Z,996.89
2016-04-15T09:16:49.353Z,996.81
2016-04-15T09:17:49.356Z,996.82
2016-04-15T09:18:49.358Z,996.84
2016-04-15T09:19:49.377Z,996.8
2016-04-15T09:20:49.379Z,996.85
2016-04-15T09:21:49.397Z,996.8
2016-04-15T09:22:49.400Z,996.77
2016-04-15T09:23:49.403Z,996.85
2016-04-15T09:24:49.405Z,996.86
2016-04-15T09:25:49.409Z,996.82
2016-04-15T09:26:49.427Z,996.8
2016-04-15T09:27:49.430Z,996.84
2016-04-15T09:28:49.432Z,996.77
2016-04-15T09:29:49.451Z,996.69
2016-04-15T09:30:49.454Z,996.73
2016-04-15T09:31:49.456Z,996.79
2016-04-15T09:32:49.459Z,996.8
2016-04-15T09:33:49.476Z,996.88
2016-04-15T09:34:49.479Z,996.78
2016-04-15T09:35:49.482Z,996.89
2016-04-15T09:36:49.485Z,996.9
2016-04-15T09:37:49.504Z,996.8
2016-04-15T09:38:49.506Z,996.85
2016-04-15T09:39:49.509Z,996.86
2016-04-15T09:40:49.527Z,996.88
2016-04-15T09:41:49.530Z,996.79
2016-04-15T09:42:49.533Z,996.78
2016-04-15T09:43:49.550Z,996.79
2016-04-15T09:44:49.553Z,996.81
2016-04-15T09:45:49.555Z,996.75
2016-04-15T09:46:49.558Z,996.76
2016-04-15T09:47:49.577Z,996.85
2016-04-15T09:48:49.580Z,996.81
2016-04-15T09:49:49.583Z,996.7
2016-04-15T09:50:49.585Z,996.67
2016-04-15T09:51:49.603Z,996.72
2016-04-15T09:52:49.605Z,996.74
2016-04-15T09:53:49.608Z,996.76
2016-04-15T09:54:49.627Z,996.72
2016-04-15T09:55:49.630Z,996.69
2016-04-15T09:56:49.633Z,996.77
2016-04-15T09:57:49.636Z,996.74
2016-04-15T09:58:49.654Z,996.72
2016-04-15T09:59:49.657Z,996.72
2016-04-15T10:00:49.659Z,996.72
2016-04-15T10:01:49.677Z,996.66
2016-04-15T10:02:49.679Z,996.84
2016-04-15T10:03:49.682Z,996.75
2016-04-15T10:04:49.701Z,996.81
2016-04-15T10:05:49.703Z,996.82
2016-04-15T10:06:49.722Z,996.85
2016-04-15T10:07:49.709Z,996.81
2016-04-15T10:08:49.712Z,996.89
2016-04-15T10:09:49.731Z,997
2016-04-15T10:10:49.733Z,996.94
2016-04-15T10:11:49.736Z,996.91
2016-04-15T10:12:49.753Z,996.89
2016-04-15T10:13:49.756Z,996.99
2016-04-15T10:14:49.759Z,997
2016-04-15T10:15:49.761Z,996.96
2016-04-15T10:16:49.780Z,996.94
2016-04-15T10:17:49.782Z,997.01
2016-04-15T10:18:49.785Z,997.09
2016-04-15T10:19:49.803Z,997.06
2016-04-15T10:20:49.806Z,997.03
2016-04-15T10:21:49.809Z,997
2016-04-15T10:22:49.811Z,997.03
2016-04-15T10:23:49.814Z,997.02
2016-04-15T10:24:49.832Z,996.96
2016-04-15T10:25:49.835Z,997
2016-04-15T10:26:49.838Z,997.06
2016-04-15T10:27:49.857Z,997.13
2016-04-15T10:28:49.860Z,997.08
2016-04-15T10:29:49.910Z,997.09
2016-04-15T10:30:49.880Z,997.02
2016-04-15T10:31:49.961Z,997.04
2016-04-15T10:32:49.885Z,997.08
2016-04-15T10:33:49.888Z,997.16
2016-04-15T10:34:49.906Z,997.11
2016-04-15T10:35:49.909Z,997.1
2016-04-15T10:36:49.912Z,997.1
2016-04-15T10:37:49.930Z,997.11
2016-04-15T10:38:49.934Z,997.12
2016-04-15T10:39:49.936Z,997.12
2016-04-15T10:40:49.939Z,997.08
2016-04-15T10:41:49.941Z,997.1
2016-04-15T10:42:49.959Z,997.14
2016-04-15T10:43:49.962Z,997.06
2016-04-15T10:44:49.964Z,997.14
2016-04-15T10:45:49.983Z,997.13
2016-04-15T10:46:49.985Z,997.2
2016-04-15T10:47:49.988Z,997.07
2016-04-15T10:48:49.991Z,997.03
2016-04-15T10:49:50.008Z,997.19
2016-04-15T10:50:50.012Z,997.2
2016-04-15T10:51:50.014Z,997.31
2016-04-15T10:52:50.017Z,997.12
2016-04-15T10:53:50.035Z,997.13
2016-04-15T10:54:50.038Z,997.15
2016-04-15T10:55:50.057Z,997.1
2016-04-15T10:56:50.060Z,997.06
2016-04-15T10:57:50.063Z,997.03
2016-04-15T10:58:50.066Z,997.07
2016-04-15T10:59:50.068Z,997.08
2016-04-15T11:00:50.086Z,997.09
2016-04-15T11:01:50.121Z,997.07
2016-04-15T11:02:50.091Z,997.11
2016-04-15T11:03:50.110Z,997.15
2016-04-15T11:04:50.112Z,997.1
2016-04-15T11:05:50.115Z,997.05
2016-04-15T11:06:50.133Z,997.11
2016-04-15T11:07:50.136Z,997.05
2016-04-15T11:08:50.139Z,997.02
2016-04-15T11:09:50.142Z,996.97
2016-04-15T11:10:50.160Z,997.12
2016-04-15T11:11:50.162Z,997.09
2016-04-15T11:12:50.165Z,996.91
2016-04-15T11:13:50.184Z,996.96
2016-04-15T11:14:50.186Z,996.94
2016-04-15T11:15:50.189Z,997.07
2016-04-15T11:16:50.206Z,996.95
2016-04-15T11:17:50.209Z,996.79
2016-04-15T11:18:50.211Z,996.85
2016-04-15T11:19:50.230Z,996.9
2016-04-15T11:20:50.233Z,996.87
2016-04-15T11:21:50.236Z,996.78
2016-04-15T11:22:50.239Z,996.77
2016-04-15T11:23:50.257Z,996.74
2016-04-15T11:24:50.260Z,996.78
2016-04-15T11:25:50.262Z,996.8
2016-04-15T11:26:50.280Z,996.74
2016-04-15T11:27:50.283Z,996.75
2016-04-15T11:28:50.286Z,996.8
2016-04-15T11:29:50.305Z,996.76
2016-04-15T11:30:50.308Z,996.66
2016-04-15T11:31:50.310Z,996.69
2016-04-15T11:32:50.313Z,996.64
2016-04-15T11:33:50.331Z,996.77
2016-04-15T11:34:50.334Z,996.73
2016-04-15T11:35:50.337Z,996.74
2016-04-15T11:36:50.354Z,996.74
2016-04-15T11:37:50.357Z,996.58
2016-04-15T11:38:50.375Z,996.67
2016-04-15T11:39:50.363Z,996.72
2016-04-15T11:40:50.381Z,996.68
2016-04-15T11:41:50.384Z,996.68
2016-04-15T11:42:50.386Z,996.72
2016-04-15T11:43:50.404Z,996.68
2016-04-15T11:44:50.407Z,996.62
2016-04-15T11:45:50.409Z,996.6
2016-04-15T11:46:50.428Z,996.71
2016-04-15T11:47:50.431Z,996.59
2016-04-15T11:48:50.433Z,996.62
2016-04-15T11:49:50.436Z,996.65
2016-04-15T11:50:50.455Z,996.65
2016-04-15T11:51:50.457Z,996.61
2016-04-15T11:52:50.460Z,996.53
2016-04-15T11:53:50.463Z,996.59
2016-04-15T11:54:50.480Z,996.58
2016-04-15T11:55:50.483Z,996.59
2016-04-15T11:56:50.486Z,996.6
2016-04-15T11:57:50.505Z,996.47
2016-04-15T11:58:50.508Z,996.45
2016-04-15T11:59:50.510Z,996.53
2016-04-15T12:00:50.529Z,996.51
2016-04-15T12:01:50.531Z,996.44
2016-04-15T12:02:50.534Z,996.44
2016-04-15T12:03:50.536Z,996.48
2016-04-15T12:04:50.554Z,996.53
2016-04-15T12:05:50.557Z,996.63
2016-04-15T12:06:50.560Z,996.47
2016-04-15T12:07:50.578Z,996.47
2016-04-15T12:08:50.582Z,996.47
2016-04-15T12:09:50.586Z,996.68
2016-04-15T12:10:50.604Z,996.65
2016-04-15T12:11:50.607Z,996.46
2016-04-15T12:12:50.609Z,996.43
2016-04-15T12:13:50.612Z,996.5
2016-04-15T12:14:50.614Z,996.63
2016-04-15T12:15:50.633Z,996.49
2016-04-15T12:16:50.635Z,996.55
2016-04-15T12:17:50.639Z,996.47
2016-04-15T12:18:50.657Z,996.61
2016-04-15T12:19:50.660Z,996.48
2016-04-15T12:20:50.663Z,996.44
2016-04-15T12:21:50.665Z,996.43
2016-04-15T12:22:50.683Z,996.43
2016-04-15T12:23:50.685Z,996.47
2016-04-15T12:24:50.688Z,996.5
2016-04-15T12:25:50.701Z,996.42
2016-04-15T12:26:50.703Z,996.52
2016-04-15T12:27:50.722Z,996.44